Time;durP1;ratioP1;P1;durP2;ratioP2;P2;SDS_P1;SDS_P2;PMS_P1;PMS_P2;Temp;Humidity;BMP_temperature;BMP_pressure;BME280_temperature;BME280_humidity;BME280_pressure;Samples;Min_cycle;Max_cycle;Signal;HPM_P1;HPM_P2
2021/05/21 00:02:13;;;;;;;2.75;0.73;;;14.60;67.50;;;;;;5093820;28;20392;-79
2021/05/21 00:04:38;;;;;;;3.80;0.75;;;14.60;67.50;;;;;;5076569;28;20028;-79
2021/05/21 00:07:04;;;;;;;2.13;0.52;;;14.60;67.70;;;;;;5086686;28;20113;-79
2021/05/21 00:09:30;;;;;;;4.53;0.52;;;14.60;67.90;;;;;;5092553;28;20035;-79
2021/05/21 00:11:56;;;;;;;2.10;0.47;;;14.60;68.00;;;;;;5093224;28;20039;-79
2021/05/21 00:14:21;;;;;;;1.75;0.57;;;14.60;67.80;;;;;;5082739;28;20032;-79
2021/05/21 00:16:47;;;;;;;5.03;0.70;;;14.60;67.80;;;;;;5093865;28;20396;-79
2021/05/21 00:19:13;;;;;;;4.93;0.70;;;14.60;67.40;;;;;;5092498;28;20032;-79
2021/05/21 00:21:39;;;;;;;3.55;0.60;;;14.70;67.50;;;;;;5093410;28;20091;-79
2021/05/21 00:24:05;;;;;;;5.70;0.80;;;14.70;68.00;;;;;;5073738;28;20020;-79
2021/05/21 00:26:30;;;;;;;2.58;0.60;;;14.60;67.60;;;;;;5074650;28;20032;-79
2021/05/21 00:28:56;;;;;;;5.60;1.38;;;14.70;67.70;;;;;;5106974;28;20008;-79
2021/05/21 00:31:22;;;;;;;2.88;0.70;;;14.70;67.80;;;;;;5082287;28;20047;-79
2021/05/21 00:33:49;;;;;;;2.28;0.60;;;14.70;68.70;;;;;;5093459;28;20028;-79
2021/05/21 00:36:15;;;;;;;3.67;0.80;;;14.60;67.50;;;;;;5075876;28;20138;-79
2021/05/21 00:38:41;;;;;;;3.15;0.70;;;14.60;67.90;;;;;;5060638;28;20119;-80
2021/05/21 00:41:07;;;;;;;2.15;0.60;;;14.70;67.80;;;;;;5067020;28;20028;-78
2021/05/21 00:43:32;;;;;;;2.55;0.65;;;14.60;68.10;;;;;;5093999;28;20024;-79
2021/05/21 00:45:59;;;;;;;3.08;0.50;;;14.60;67.80;;;;;;5093365;28;20074;-79
2021/05/21 00:48:25;;;;;;;1.65;0.68;;;14.60;68.10;;;;;;5093829;28;20095;-79
2021/05/21 00:50:50;;;;;;;4.10;0.70;;;14.60;68.00;;;;;;5075508;28;20051;-79
2021/05/21 00:53:21;;;;;;;2.92;0.52;;;14.60;68.40;;;;;;5082849;28;20028;-79
2021/05/21 00:55:47;;;;;;;4.30;0.68;;;14.60;68.30;;;;;;5073378;28;20035;-79
2021/05/21 00:58:13;;;;;;;3.53;0.60;;;14.60;68.90;;;;;;5083282;28;20032;-79
2021/05/21 01:00:39;;;;;;;5.57;0.82;;;14.50;68.70;;;;;;5079902;28;20378;-79
2021/05/21 01:03:05;;;;;;;1.90;0.50;;;14.60;69.00;;;;;;5081770;28;20082;-79
2021/05/21 01:05:31;;;;;;;3.83;0.98;;;14.50;68.90;;;;;;5082256;28;20044;-79
2021/05/21 01:07:56;;;;;;;2.58;0.80;;;14.50;69.00;;;;;;5071946;28;20028;-79
2021/05/21 01:10:22;;;;;;;2.92;0.70;;;14.50;68.90;;;;;;5081436;28;20044;-80
2021/05/21 01:12:48;;;;;;;1.73;0.63;;;14.50;68.90;;;;;;5079455;28;20036;-79
2021/05/21 01:15:15;;;;;;;3.25;0.80;;;14.40;69.20;;;;;;5093180;28;20024;-79
2021/05/21 01:17:41;;;;;;;3.35;0.75;;;14.40;69.20;;;;;;5059025;28;20419;-79
2021/05/21 01:20:11;;;;;;;3.50;0.52;;;14.40;69.20;;;;;;5093005;28;20035;-79
2021/05/21 01:22:37;;;;;;;1.67;0.70;;;14.40;69.10;;;;;;5092773;28;20020;-79
2021/05/21 01:25:05;;;;;;;3.22;1.00;;;14.40;69.30;;;;;;5093051;28;20418;-79
2021/05/21 01:27:31;;;;;;;1.52;0.40;;;14.40;69.20;;;;;;5093193;28;20020;-79
2021/05/21 01:29:56;;;;;;;2.35;0.90;;;14.40;69.20;;;;;;5093041;28;20044;-81
2021/05/21 01:32:22;;;;;;;3.83;0.80;;;14.40;70.00;;;;;;5108945;28;20067;-79
2021/05/21 01:34:48;;;;;;;2.95;0.85;;;14.40;69.30;;;;;;5092555;28;20140;-79
2021/05/21 01:37:21;;;;;;;3.30;0.65;;;14.30;69.60;;;;;;5109008;28;20043;-79
2021/05/21 01:39:49;;;;;;;5.57;0.77;;;14.30;69.60;;;;;;5091810;28;20040;-79
2021/05/21 01:42:15;;;;;;;3.90;0.65;;;14.30;69.70;;;;;;5083947;28;20032;-79
2021/05/21 01:44:42;;;;;;;2.33;0.55;;;14.30;70.00;;;;;;5074852;28;20480;-79
2021/05/21 01:47:10;;;;;;;3.83;0.80;;;14.20;70.30;;;;;;5092689;28;20508;-79
2021/05/21 01:49:36;;;;;;;2.28;0.70;;;14.20;71.00;;;;;;5092330;28;20020;-79
2021/05/21 01:52:01;;;;;;;3.85;0.80;;;14.10;70.10;;;;;;5054577;28;20090;-79
2021/05/21 01:54:29;;;;;;;2.85;0.60;;;14.10;70.30;;;;;;5088604;28;20103;-79
2021/05/21 01:56:58;;;;;;;3.10;0.60;;;14.10;70.50;;;;;;5092216;28;20043;-79
2021/05/21 01:59:25;;;;;;;2.78;0.60;;;14.10;70.80;;;;;;5054855;28;20147;-79
2021/05/21 02:01:51;;;;;;;1.67;0.65;;;14.10;70.50;;;;;;5073559;28;20045;-79
2021/05/21 02:04:27;;;;;;;3.70;0.60;;;14.10;70.90;;;;;;5060078;28;20055;-79
2021/05/21 02:06:54;;;;;;;3.22;0.45;;;14.00;70.80;;;;;;5086881;28;20467;-79
2021/05/21 02:09:20;;;;;;;4.60;0.70;;;14.00;71.00;;;;;;5074722;28;20032;-79
2021/05/21 02:11:45;;;;;;;4.63;0.80;;;14.00;71.10;;;;;;5057807;28;20044;-80
2021/05/21 02:14:11;;;;;;;2.15;0.50;;;14.00;71.30;;;;;;5110507;28;20056;-79
2021/05/21 02:16:37;;;;;;;2.58;0.57;;;13.90;71.40;;;;;;5095978;28;20032;-80
2021/05/21 02:19:02;;;;;;;4.35;0.65;;;13.90;71.50;;;;;;5112501;28;20462;-80
2021/05/21 02:21:32;;;;;;;2.70;0.63;;;13.80;71.70;;;;;;5061317;28;20040;-79
2021/05/21 02:24:02;;;;;;;2.08;0.50;;;13.80;71.80;;;;;;5111563;28;20020;-79
2021/05/21 02:26:27;;;;;;;3.00;0.80;;;13.80;71.80;;;;;;5111968;28;20028;-80
2021/05/21 02:28:53;;;;;;;2.10;0.68;;;13.80;71.50;;;;;;5096520;28;20141;-79
2021/05/21 02:31:20;;;;;;;3.60;0.80;;;13.70;71.50;;;;;;5095203;28;20046;-80
2021/05/21 02:33:45;;;;;;;6.82;0.70;;;13.70;72.00;;;;;;5102691;28;20028;-79
2021/05/21 02:36:11;;;;;;;3.90;1.02;;;13.70;71.90;;;;;;5079079;28;20028;-81
2021/05/21 02:38:37;;;;;;;3.03;0.80;;;13.70;71.80;;;;;;5061479;28;20028;-79
2021/05/21 02:41:02;;;;;;;6.53;0.80;;;13.60;72.00;;;;;;5075965;28;20032;-79
2021/05/21 02:43:28;;;;;;;3.10;0.82;;;13.60;73.00;;;;;;5077725;28;20081;-79
2021/05/21 02:45:54;;;;;;;2.13;0.60;;;13.60;72.40;;;;;;5095519;28;20053;-79
2021/05/21 02:48:19;;;;;;;3.58;0.70;;;13.50;72.40;;;;;;5094114;28;20028;-80
2021/05/21 02:50:45;;;;;;;1.00;0.60;;;13.50;72.70;;;;;;5061076;28;20028;-80
2021/05/21 02:53:11;;;;;;;2.10;0.52;;;13.50;73.00;;;;;;5073852;28;20512;-80
2021/05/21 02:55:36;;;;;;;6.82;0.90;;;13.50;72.90;;;;;;5062211;28;20041;-79
2021/05/21 02:58:03;;;;;;;2.50;0.70;;;13.40;72.90;;;;;;5091836;28;20397;-80
2021/05/21 03:00:29;;;;;;;4.68;1.00;;;13.40;73.30;;;;;;5095660;28;20020;-79
2021/05/21 03:02:55;;;;;;;3.63;0.73;;;13.40;73.10;;;;;;5088140;28;20472;-79
2021/05/21 03:05:22;;;;;;;3.58;0.70;;;13.40;73.00;;;;;;5094282;28;20119;-79
2021/05/21 03:07:53;;;;;;;7.13;0.55;;;13.40;73.20;;;;;;5094930;28;20454;-79
2021/05/21 03:10:20;;;;;;;2.67;0.80;;;13.30;72.90;;;;;;5095257;28;20067;-79
2021/05/21 03:12:46;;;;;;;1.15;0.60;;;13.30;73.20;;;;;;5066824;28;20028;-79
2021/05/21 03:15:12;;;;;;;4.10;0.50;;;13.30;73.30;;;;;;5094832;28;20574;-79
2021/05/21 03:17:38;;;;;;;2.25;0.50;;;13.40;73.40;;;;;;5092019;28;20032;-79
2021/05/21 03:20:04;;;;;;;1.80;0.60;;;13.40;73.50;;;;;;5077313;28;20035;-79
2021/05/21 03:22:30;;;;;;;3.17;0.63;;;13.40;73.30;;;;;;5076323;28;20040;-79
2021/05/21 03:24:56;;;;;;;4.30;0.55;;;13.40;73.40;;;;;;5094541;28;20103;-79
2021/05/21 03:27:22;;;;;;;3.30;0.85;;;13.40;73.60;;;;;;5088047;28;20021;-79
2021/05/21 03:29:48;;;;;;;3.58;0.70;;;13.30;73.50;;;;;;5075486;28;20078;-79
2021/05/21 03:32:13;;;;;;;1.92;0.70;;;13.30;73.50;;;;;;5088760;28;20423;-79
2021/05/21 03:34:39;;;;;;;4.15;0.70;;;13.30;73.70;;;;;;5075057;28;20086;-79
2021/05/21 03:37:05;;;;;;;2.33;0.73;;;13.30;73.70;;;;;;5074819;28;20048;-79
2021/05/21 03:39:31;;;;;;;4.40;0.80;;;13.30;74.60;;;;;;5057470;28;20505;-79
2021/05/21 03:41:57;;;;;;;2.95;0.93;;;13.30;73.90;;;;;;5089501;28;20078;-79
2021/05/21 03:44:22;;;;;;;3.28;0.90;;;13.30;73.90;;;;;;5059922;28;20020;-80
2021/05/21 03:46:48;;;;;;;6.60;0.80;;;13.30;73.90;;;;;;5075365;28;20032;-79
2021/05/21 03:49:16;;;;;;;5.50;0.93;;;13.30;73.80;;;;;;5093525;28;20081;-79
2021/05/21 03:51:41;;;;;;;1.60;0.68;;;13.40;73.80;;;;;;5059973;28;20023;-79
2021/05/21 03:54:08;;;;;;;3.25;1.05;;;13.40;74.00;;;;;;5075076;28;20040;-80
2021/05/21 03:56:33;;;;;;;4.65;1.02;;;13.40;73.80;;;;;;5074267;28;20114;-79
2021/05/21 03:58:59;;;;;;;2.95;0.88;;;13.50;73.50;;;;;;5074014;28;20062;-79
2021/05/21 04:01:25;;;;;;;1.40;0.60;;;13.40;73.70;;;;;;5092958;28;20036;-80
2021/05/21 04:03:51;;;;;;;6.15;0.75;;;13.50;73.70;;;;;;5074560;28;20024;-79
2021/05/21 04:06:17;;;;;;;4.78;0.70;;;13.50;73.50;;;;;;5093478;28;20107;-79
2021/05/21 04:08:42;;;;;;;5.82;0.73;;;13.50;73.60;;;;;;5074224;28;20024;-80
2021/05/21 04:11:08;;;;;;;4.40;0.75;;;13.50;73.40;;;;;;5093003;28;20039;-79
2021/05/21 04:13:34;;;;;;;3.88;1.00;;;13.50;73.60;;;;;;5075051;28;20042;-79
2021/05/21 04:16:00;;;;;;;4.03;0.80;;;13.50;74.00;;;;;;5074770;28;20032;-79
2021/05/21 04:18:26;;;;;;;2.75;0.55;;;13.50;74.00;;;;;;5092039;28;20077;-79
2021/05/21 04:20:52;;;;;;;3.08;0.70;;;13.50;73.90;;;;;;5075662;28;20036;-80
2021/05/21 04:23:17;;;;;;;3.78;0.98;;;13.60;73.60;;;;;;5092816;28;20119;-80
2021/05/21 04:25:43;;;;;;;5.13;1.35;;;13.60;73.40;;;;;;5092966;28;20431;-80
2021/05/21 04:28:10;;;;;;;3.15;0.70;;;13.60;73.60;;;;;;5092605;28;20060;-79
2021/05/21 04:30:36;;;;;;;4.30;0.98;;;13.60;74.50;;;;;;5074715;28;20032;-80
2021/05/21 04:33:02;;;;;;;5.32;0.90;;;13.60;74.20;;;;;;5091673;28;20090;-80
2021/05/21 04:35:28;;;;;;;3.15;0.95;;;13.60;74.10;;;;;;5092387;28;20103;-80
2021/05/21 04:37:54;;;;;;;4.03;0.80;;;13.60;74.00;;;;;;5089684;28;20119;-79
2021/05/21 04:40:19;;;;;;;3.90;1.10;;;13.60;74.00;;;;;;5092795;28;20536;-80
2021/05/21 04:42:45;;;;;;;3.42;0.88;;;13.70;73.90;;;;;;5074227;28;20034;-79
2021/05/21 04:45:12;;;;;;;6.53;0.90;;;13.70;73.80;;;;;;5073116;28;20034;-80
2021/05/21 04:47:37;;;;;;;5.13;0.90;;;13.70;73.50;;;;;;5104868;28;20028;-80
2021/05/21 04:50:04;;;;;;;7.85;1.05;;;13.70;73.70;;;;;;5093204;28;20028;-80
2021/05/21 04:52:30;;;;;;;3.65;1.00;;;13.80;73.70;;;;;;5087615;28;20047;-80
2021/05/21 04:54:55;;;;;;;2.40;0.80;;;13.80;73.60;;;;;;5054433;28;20029;-79
2021/05/21 04:57:21;;;;;;;4.38;0.93;;;13.80;73.70;;;;;;5075127;28;20032;-80
2021/05/21 04:59:47;;;;;;;3.63;0.95;;;13.80;73.50;;;;;;5074172;28;20128;-80
2021/05/21 05:02:12;;;;;;;4.78;1.13;;;13.70;73.70;;;;;;5072282;28;20059;-79
2021/05/21 05:04:38;;;;;;;7.90;1.08;;;13.70;73.90;;;;;;5089795;28;20095;-80
2021/05/21 05:07:03;;;;;;;5.40;1.08;;;13.70;73.30;;;;;;5092852;28;20103;-80
2021/05/21 05:09:29;;;;;;;8.13;1.38;;;13.70;73.40;;;;;;5072552;28;20032;-79
2021/05/21 05:11:56;;;;;;;7.30;1.27;;;13.70;73.70;;;;;;5092143;28;20052;-79
2021/05/21 05:14:22;;;;;;;4.13;1.25;;;13.80;74.10;;;;;;5090921;28;20056;-80
2021/05/21 05:16:47;;;;;;;4.55;0.90;;;13.80;73.80;;;;;;5073057;28;20058;-80
2021/05/21 05:19:13;;;;;;;9.27;1.70;;;13.90;73.70;;;;;;5089797;28;20097;-79
2021/05/21 05:21:43;;;;;;;9.13;1.10;;;13.90;73.20;;;;;;5061177;28;20043;-80
2021/05/21 05:24:13;;;;;;;9.70;1.35;;;13.90;73.90;;;;;;5073426;28;20380;-79
2021/05/21 05:26:39;;;;;;;6.25;1.30;;;13.90;73.70;;;;;;5091845;28;20022;-79
2021/05/21 05:29:05;;;;;;;6.60;1.27;;;14.00;73.80;;;;;;5056028;28;20056;-79
2021/05/21 05:31:32;;;;;;;7.63;1.33;;;14.00;73.40;;;;;;5093300;28;20586;-80
2021/05/21 05:33:58;;;;;;;6.65;1.20;;;14.10;72.80;;;;;;5076395;28;20035;-80
2021/05/21 05:36:24;;;;;;;5.75;1.02;;;14.10;72.70;;;;;;5092381;28;20032;-80
2021/05/21 05:38:49;;;;;;;4.93;1.20;;;14.20;72.70;;;;;;5087369;28;20100;-80
2021/05/21 05:41:15;;;;;;;3.30;1.00;;;14.30;73.00;;;;;;5094998;28;20032;-79
2021/05/21 05:43:40;;;;;;;5.68;1.42;;;14.30;71.80;;;;;;5089723;28;20029;-79
2021/05/21 05:46:09;;;;;;;8.65;1.45;;;14.30;72.50;;;;;;5082128;28;20469;-79
2021/05/21 05:48:35;;;;;;;6.00;1.30;;;14.30;72.60;;;;;;5089679;28;20028;-80
2021/05/21 05:51:01;;;;;;;5.63;1.13;;;14.30;72.50;;;;;;5082047;28;20041;-80
2021/05/21 05:53:26;;;;;;;9.07;1.42;;;14.30;72.20;;;;;;5093341;28;20036;-79
2021/05/21 05:55:52;;;;;;;9.43;1.38;;;14.30;72.50;;;;;;5110739;28;20025;-80
2021/05/21 05:58:17;;;;;;;6.53;1.33;;;14.40;73.00;;;;;;5088617;28;20516;-79
2021/05/21 06:00:43;;;;;;;7.80;1.40;;;14.40;71.70;;;;;;5090824;28;20024;-79
2021/05/21 06:03:10;;;;;;;8.52;1.33;;;14.50;71.50;;;;;;5112675;28;20057;-79
2021/05/21 06:05:37;;;;;;;10.38;1.55;;;14.60;71.50;;;;;;5091111;28;20024;-80
2021/05/21 06:08:05;;;;;;;6.72;1.55;;;14.70;71.60;;;;;;5094969;28;20039;-79
2021/05/21 06:10:32;;;;;;;6.30;1.20;;;14.80;70.90;;;;;;5094940;28;20025;-79
2021/05/21 06:13:22;;;;;;;11.40;1.52;;;14.80;70.60;;;;;;5096422;28;20488;-80
2021/05/21 06:15:47;;;;;;;7.38;1.48;;;14.80;70.90;;;;;;5082951;28;20035;-79
2021/05/21 06:18:13;;;;;;;7.70;1.48;;;14.80;70.50;;;;;;5101133;28;20036;-80
2021/05/21 06:20:38;;;;;;;9.43;1.50;;;14.90;70.70;;;;;;5084097;28;20478;-80
2021/05/21 06:23:04;;;;;;;6.20;1.65;;;14.90;70.90;;;;;;5076252;28;20036;-80
2021/05/21 06:28:06;;;;;;;8.43;1.90;;;15.00;70.40;;;;;;5093054;28;20042;-80
2021/05/21 06:30:31;;;;;;;6.75;1.80;;;15.10;69.60;;;;;;5084276;28;20603;-79
2021/05/21 06:32:57;;;;;;;7.65;1.65;;;15.20;69.80;;;;;;5079183;28;20031;-79
2021/05/21 06:35:23;;;;;;;10.48;1.65;;;15.20;70.20;;;;;;5075939;28;20032;-80
2021/05/21 06:37:48;;;;;;;12.57;1.60;;;15.30;69.50;;;;;;5095165;28;20032;-79
2021/05/21 06:40:14;;;;;;;8.25;1.77;;;15.30;68.70;;;;;;5112028;28;20081;-79
2021/05/21 06:42:40;;;;;;;8.90;1.70;;;15.30;67.70;;;;;;5111952;28;20032;-79
2021/05/21 06:45:07;;;;;;;18.90;2.65;;;15.40;65.90;;;;;;5096297;28;20016;-79
2021/05/21 06:47:33;;;;;;;10.13;1.80;;;15.30;66.20;;;;;;5096352;28;20027;-79
2021/05/21 06:49:58;;;;;;;8.07;1.60;;;15.30;67.00;;;;;;5096254;28;20028;-79
2021/05/21 06:52:25;;;;;;;8.93;1.92;;;15.40;67.80;;;;;;5112460;28;20024;-79
2021/05/21 06:54:51;;;;;;;16.20;2.33;;;15.40;67.60;;;;;;5095891;28;20039;-81
2021/05/21 06:57:16;;;;;;;12.45;2.22;;;15.30;66.70;;;;;;5096119;28;20032;-80
2021/05/21 06:59:42;;;;;;;14.20;2.15;;;15.20;66.60;;;;;;5077214;28;20023;-80
2021/05/21 07:02:08;;;;;;;13.10;2.00;;;15.10;66.10;;;;;;5095856;28;20123;-80
2021/05/21 07:04:34;;;;;;;15.38;2.50;;;15.00;66.70;;;;;;5077775;28;20032;-80
2021/05/21 07:06:59;;;;;;;12.35;2.30;;;15.00;65.70;;;;;;5095831;28;20021;-80
2021/05/21 07:09:25;;;;;;;11.32;2.42;;;15.00;66.00;;;;;;5077497;28;20082;-80
2021/05/21 07:11:51;;;;;;;13.27;2.78;;;15.10;66.00;;;;;;5095581;28;20071;-80
2021/05/21 07:14:17;;;;;;;19.92;2.58;;;15.20;65.40;;;;;;5111459;28;20499;-79
2021/05/21 07:16:42;;;;;;;15.10;2.55;;;15.40;64.70;;;;;;5111499;28;20039;-79
2021/05/21 07:19:10;;;;;;;15.10;2.05;;;15.60;64.80;;;;;;5111517;28;20047;-80
2021/05/21 07:21:36;;;;;;;13.85;2.40;;;15.60;65.10;;;;;;5095621;28;20484;-80
2021/05/21 07:24:02;;;;;;;10.35;2.05;;;15.60;65.00;;;;;;5095510;28;20068;-80
2021/05/21 07:26:30;;;;;;;9.75;2.00;;;15.50;63.40;;;;;;5095473;28;20027;-80
2021/05/21 07:28:56;;;;;;;15.23;2.67;;;15.40;64.60;;;;;;5095525;28;20500;-80
2021/05/21 07:31:26;;;;;;;17.33;2.88;;;15.50;65.10;;;;;;5060689;28;20028;-80
2021/05/21 07:33:51;;;;;;;17.67;2.90;;;15.80;63.90;;;;;;5045231;28;20032;-80
2021/05/21 07:36:17;;;;;;;18.95;2.85;;;16.10;63.80;;;;;;5077362;28;20031;-80
2021/05/21 07:38:43;;;;;;;16.55;3.05;;;16.30;63.00;;;;;;5077204;28;20086;-79
2021/05/21 07:41:08;;;;;;;15.13;2.70;;;16.50;61.90;;;;;;5076885;28;20032;-79
2021/05/21 07:43:34;;;;;;;16.58;3.33;;;16.60;60.80;;;;;;5077145;28;20086;-80
2021/05/21 07:46:00;;;;;;;14.70;2.70;;;16.70;60.80;;;;;;5095102;28;20070;-79
2021/05/21 07:48:26;;;;;;;12.90;2.80;;;16.70;61.00;;;;;;5095099;28;20107;-79
2021/05/21 07:50:52;;;;;;;18.23;2.80;;;16.70;61.30;;;;;;5095296;28;20047;-79
2021/05/21 07:53:18;;;;;;;15.18;2.45;;;16.70;60.10;;;;;;5076891;28;20448;-79
2021/05/21 07:55:45;;;;;;;20.40;2.60;;;16.60;59.70;;;;;;5094255;28;20103;-81
2021/05/21 07:58:13;;;;;;;17.08;3.05;;;16.40;60.00;;;;;;5094338;28;20043;-79
2021/05/21 08:00:38;;;;;;;13.43;3.60;;;16.30;60.20;;;;;;5076687;28;20047;-80
2021/05/21 08:03:04;;;;;;;17.70;2.92;;;16.10;59.90;;;;;;5076158;28;20301;-80
2021/05/21 08:05:30;;;;;;;13.23;2.75;;;16.30;59.90;;;;;;5076156;28;20048;-80
2021/05/21 08:07:55;;;;;;;20.90;3.10;;;16.60;60.10;;;;;;5077963;28;20400;-80
2021/05/21 08:10:21;;;;;;;20.45;3.22;;;16.60;59.60;;;;;;5115110;28;20380;-80
2021/05/21 08:12:47;;;;;;;18.77;2.80;;;16.90;58.10;;;;;;5114732;28;20052;-79
2021/05/21 08:15:13;;;;;;;13.88;2.80;;;17.10;58.50;;;;;;5097109;28;20024;-80
2021/05/21 08:17:39;;;;;;;11.68;2.40;;;17.40;57.40;;;;;;5115131;28;20426;-80
2021/05/21 08:20:05;;;;;;;20.80;3.58;;;17.70;55.30;;;;;;5115132;28;20030;-80
2021/05/21 08:22:31;;;;;;;16.92;2.88;;;17.60;55.70;;;;;;5114602;28;20032;-79
2021/05/21 08:24:57;;;;;;;9.85;2.40;;;17.40;56.70;;;;;;5114598;28;20048;-80
2021/05/21 08:27:22;;;;;;;17.85;2.72;;;17.30;56.80;;;;;;5114807;28;20036;-80
2021/05/21 08:29:48;;;;;;;16.88;2.80;;;17.30;57.00;;;;;;5079751;28;20024;-80
2021/05/21 08:32:14;;;;;;;14.73;2.85;;;17.20;56.50;;;;;;5114631;28;20039;-80
2021/05/21 08:34:40;;;;;;;14.27;2.60;;;17.00;55.10;;;;;;5114500;28;20043;-80
2021/05/21 08:37:06;;;;;;;13.75;2.97;;;17.10;55.30;;;;;;5079257;28;20027;-80
2021/05/21 08:39:32;;;;;;;19.92;2.72;;;17.20;55.00;;;;;;5096305;28;20538;-80
2021/05/21 08:41:59;;;;;;;15.95;2.45;;;17.10;53.90;;;;;;5076640;28;20032;-80
2021/05/21 08:44:26;;;;;;;17.67;2.97;;;17.20;55.10;;;;;;5075205;28;20032;-80
2021/05/21 08:46:52;;;;;;;19.42;3.00;;;17.30;54.30;;;;;;5075777;28;20012;-80
2021/05/21 08:49:19;;;;;;;12.15;2.90;;;17.20;54.50;;;;;;5054914;28;20082;-80
2021/05/21 08:51:45;;;;;;;17.08;2.95;;;17.10;55.10;;;;;;5072176;28;20031;-81
2021/05/21 08:54:11;;;;;;;22.80;3.38;;;16.90;54.90;;;;;;5071844;28;20032;-80
2021/05/21 08:56:37;;;;;;;15.35;2.58;;;16.90;55.70;;;;;;5077089;28;20107;-80
2021/05/21 08:59:03;;;;;;;20.88;3.63;;;16.70;54.90;;;;;;5093694;28;20027;-79
2021/05/21 09:01:29;;;;;;;16.25;3.20;;;16.60;55.60;;;;;;5093643;28;20492;-79
2021/05/21 09:04:00;;;;;;;19.30;3.10;;;16.70;56.30;;;;;;5093520;28;20031;-80
2021/05/21 09:06:26;;;;;;;19.65;3.42;;;16.90;56.00;;;;;;5059014;28;20028;-80
2021/05/21 09:08:56;;;;;;;18.55;2.95;;;16.90;55.20;;;;;;5093535;28;20033;-79
2021/05/21 09:11:31;;;;;;;15.75;2.33;;;17.00;55.60;;;;;;5093496;28;20032;-80
2021/05/21 09:14:01;;;;;;;17.02;2.88;;;17.30;54.60;;;;;;5093620;28;20028;-80
2021/05/21 09:16:29;;;;;;;19.85;3.00;;;17.60;52.60;;;;;;5093583;28;20024;-80
2021/05/21 09:19:19;;;;;;;19.48;2.72;;;17.70;50.60;;;;;;5093528;28;20028;-80
2021/05/21 09:21:53;;;;;;;19.67;2.55;;;17.80;52.40;;;;;;5093331;28;20032;-80
2021/05/21 09:24:42;;;;;;;13.48;3.13;;;17.90;52.30;;;;;;5074921;28;20031;-80
2021/05/21 09:27:09;;;;;;;13.68;2.55;;;17.90;52.30;;;;;;5075261;28;20031;-80
2021/05/21 09:29:41;;;;;;;31.20;3.22;;;17.70;52.00;;;;;;5075410;28;20023;-80
2021/05/21 09:32:16;;;;;;;21.17;2.47;;;17.60;51.80;;;;;;5075350;28;20024;-80
2021/05/21 09:34:46;;;;;;;14.07;2.40;;;17.40;52.00;;;;;;5093452;28;20381;-80
2021/05/21 09:37:24;;;;;;;27.33;2.90;;;17.30;51.60;;;;;;5075229;28;20186;-78
2021/05/21 09:40:23;;;;;;;16.67;2.97;;;17.30;50.80;;;;;;5093343;28;20042;-78
2021/05/21 09:43:05;;;;;;;19.25;2.50;;;17.40;50.00;;;;;;5078716;28;20180;-78
2021/05/21 09:45:40;;;;;;;16.60;2.58;;;17.30;51.50;;;;;;5075512;28;20028;-78
2021/05/21 09:48:08;;;;;;;16.60;2.55;;;17.10;53.20;;;;;;5075463;28;20035;-78
2021/05/21 09:50:48;;;;;;;13.55;2.33;;;16.90;55.80;;;;;;5093325;28;20028;-78
2021/05/21 09:53:22;;;;;;;16.33;2.67;;;16.90;54.30;;;;;;5075134;28;20101;-79
2021/05/21 09:55:56;;;;;;;15.65;2.65;;;17.10;51.90;;;;;;5075455;28;20031;-79
2021/05/21 09:58:24;;;;;;;8.85;2.20;;;17.30;54.00;;;;;;5075293;28;20043;-78
2021/05/21 10:01:16;;;;;;;12.50;2.60;;;17.60;53.20;;;;;;5092930;28;20031;-78
2021/05/21 10:03:49;;;;;;;23.73;2.42;;;17.70;51.70;;;;;;5093177;28;20047;-79
2021/05/21 10:06:17;;;;;;;14.98;2.63;;;17.80;52.40;;;;;;5093305;28;20021;-78
2021/05/21 10:08:45;;;;;;;24.50;3.00;;;17.80;50.80;;;;;;5093061;28;20048;-78
2021/05/21 10:11:12;;;;;;;19.65;2.30;;;17.70;52.80;;;;;;5075375;28;20024;-78
2021/05/21 10:13:46;;;;;;;18.98;2.30;;;17.60;51.40;;;;;;5075037;28;20036;-78
2021/05/21 10:16:16;;;;;;;27.80;2.78;;;17.60;51.40;;;;;;5093075;28;20024;-79
2021/05/21 10:18:52;;;;;;;23.55;2.90;;;17.80;51.20;;;;;;5075644;28;20032;-78
2021/05/21 10:21:20;;;;;;;22.45;2.90;;;18.10;50.40;;;;;;5091288;28;20032;-78
2021/05/21 10:23:53;;;;;;;21.63;2.90;;;18.30;49.00;;;;;;5074648;28;20024;-78
2021/05/21 10:26:33;;;;;;;27.10;3.80;;;18.50;50.10;;;;;;5075003;28;20495;-78
2021/05/21 10:29:02;;;;;;;13.85;2.50;;;18.70;49.50;;;;;;5074598;28;20101;-79
2021/05/21 10:31:28;;;;;;;36.05;3.58;;;18.90;49.30;;;;;;5091382;28;20024;-78
2021/05/21 10:34:23;;;;;;;26.45;2.90;;;19.10;47.40;;;;;;5074676;28;20132;-79
2021/05/21 10:36:49;;;;;;;15.75;2.30;;;19.30;48.90;;;;;;5078755;28;20043;-79
2021/05/21 10:39:20;;;;;;;23.98;2.63;;;19.30;47.70;;;;;;5095353;28;20032;-78
2021/05/21 10:41:57;;;;;;;32.88;3.00;;;19.50;46.90;;;;;;5096469;28;20027;-78
2021/05/21 10:44:35;;;;;;;23.15;2.70;;;19.60;45.20;;;;;;5078369;28;20073;-78
2021/05/21 10:47:16;;;;;;;25.70;2.93;;;19.30;46.60;;;;;;5096209;28;20028;-79
2021/05/21 10:50:02;;;;;;;27.58;2.80;;;19.10;47.10;;;;;;5096211;28;20020;-79
2021/05/21 10:52:51;;;;;;;17.08;2.50;;;19.00;46.80;;;;;;5095805;28;20032;-78
2021/05/21 10:55:19;;;;;;;12.07;2.33;;;19.30;47.00;;;;;;5085350;28;20437;-79
2021/05/21 10:57:58;;;;;;;18.45;2.75;;;19.40;45.30;;;;;;5096087;28;20417;-79
2021/05/21 11:00:24;;;;;;;28.83;3.28;;;19.30;45.70;;;;;;5078288;28;20032;-78
2021/05/21 11:02:52;;;;;;;29.55;3.10;;;19.40;46.30;;;;;;5095935;28;20411;-78
2021/05/21 11:05:29;;;;;;;18.95;3.38;;;19.60;47.40;;;;;;5077807;28;20032;-79
2021/05/21 11:08:02;;;;;;;24.58;2.42;;;19.90;47.00;;;;;;5094365;28;20031;-78
2021/05/21 11:10:41;;;;;;;37.45;3.75;;;20.10;47.00;;;;;;5072559;28;20643;-80
2021/05/21 11:13:10;;;;;;;22.65;2.83;;;20.30;44.50;;;;;;5090438;28;20044;-80
2021/05/21 11:15:40;;;;;;;;;;;20.40;43.50;;;;;;5090849;28;20712;-80
2021/05/21 11:18:21;;;;;;;37.13;3.08;;;20.20;41.90;;;;;;5086940;28;19915;-79
2021/05/21 11:21:15;;;;;;;21.63;2.42;;;19.90;43.70;;;;;;5074145;28;20030;-79
2021/05/21 11:23:46;;;;;;;25.30;2.58;;;19.60;44.70;;;;;;5087820;28;20024;-79
2021/05/21 11:26:17;;;;;;;21.58;2.55;;;19.30;44.60;;;;;;5094150;28;20045;-80
2021/05/21 11:28:49;;;;;;;29.65;3.08;;;19.10;45.10;;;;;;5092131;28;20095;-86
2021/05/21 11:31:29;;;;;;;19.08;2.85;;;18.90;45.60;;;;;;5071552;28;20032;-79
2021/05/21 11:33:59;;;;;;;22.92;3.22;;;18.60;46.20;;;;;;5083119;28;20032;-79
2021/05/21 11:36:26;;;;;;;25.70;2.58;;;18.50;46.60;;;;;;5080197;28;20027;-80
2021/05/21 11:38:52;;;;;;;18.63;2.88;;;18.40;45.60;;;;;;5069956;28;20046;-78
2021/05/21 11:41:30;;;;;;;18.90;2.58;;;18.30;46.10;;;;;;5075392;28;20036;-79
2021/05/21 11:44:04;;;;;;;16.37;2.50;;;18.40;46.00;;;;;;5070077;28;20165;-79
2021/05/21 11:46:34;;;;;;;27.10;2.97;;;18.60;45.10;;;;;;5071397;28;20263;-78
2021/05/21 11:49:00;;;;;;;18.30;2.60;;;18.80;46.40;;;;;;5074802;28;20016;-79
2021/05/21 11:51:26;;;;;;;19.48;2.17;;;19.00;46.40;;;;;;5092422;28;20051;-79
2021/05/21 11:53:55;;;;;;;16.77;2.38;;;19.30;46.00;;;;;;5058088;28;20249;-78
2021/05/21 11:56:28;;;;;;;22.02;2.55;;;19.40;46.20;;;;;;5069136;28;20099;-78
2021/05/21 11:58:58;;;;;;;37.20;3.72;;;19.50;45.10;;;;;;5075287;28;20024;-78
2021/05/21 12:01:24;;;;;;;19.92;3.22;;;19.60;45.30;;;;;;5083552;28;20028;-78
2021/05/21 12:03:50;;;;;;;16.70;2.47;;;19.70;44.30;;;;;;5092308;28;20101;-79
2021/05/21 12:06:15;;;;;;;22.70;2.33;;;19.80;44.20;;;;;;5075348;28;20024;-79
2021/05/21 12:08:48;;;;;;;23.05;2.92;;;19.70;43.90;;;;;;5065463;28;20500;-78
2021/05/21 12:11:15;;;;;;;23.90;3.22;;;19.90;43.90;;;;;;5072918;28;20422;-78
2021/05/21 12:13:42;;;;;;;33.33;3.42;;;20.00;44.60;;;;;;5073394;28;20052;-78
2021/05/21 12:16:19;;;;;;;57.85;4.75;;;20.10;42.30;;;;;;5088867;28;20106;-78
2021/05/21 12:18:46;;;;;;;31.90;3.30;;;19.90;42.80;;;;;;5066479;28;20020;-79
2021/05/21 12:21:22;;;;;;;19.00;2.22;;;19.80;43.30;;;;;;5090336;28;20045;-75
2021/05/21 12:23:52;;;;;;;23.48;3.15;;;19.70;44.90;;;;;;5068865;28;20020;-76
2021/05/21 12:26:22;;;;;;;30.58;3.22;;;19.90;44.50;;;;;;5085341;28;20055;-81
2021/05/21 12:28:49;;;;;;;29.80;3.67;;;20.10;44.40;;;;;;5097134;28;20024;-78
2021/05/21 12:31:18;;;;;;;34.58;3.88;;;20.10;43.60;;;;;;5090513;28;20115;-78
2021/05/21 12:33:44;;;;;;;67.25;4.22;;;20.10;44.00;;;;;;5072920;28;20446;-78
2021/05/21 12:36:14;;;;;;;27.23;3.05;;;20.20;44.30;;;;;;5091817;28;20043;-77
2021/05/21 12:38:51;;;;;;;52.75;4.72;;;20.20;43.90;;;;;;5074120;28;20032;-78
2021/05/21 12:41:25;;;;;;;39.25;3.97;;;20.10;44.20;;;;;;5089886;28;20031;-77
2021/05/21 12:43:51;;;;;;;24.48;2.70;;;20.30;44.40;;;;;;5067063;28;20016;-78
2021/05/21 12:46:16;;;;;;;20.83;3.00;;;20.40;42.20;;;;;;5089616;28;20437;-78
2021/05/21 12:48:44;;;;;;;15.20;2.60;;;20.20;43.30;;;;;;5055346;28;20396;-78
2021/05/21 12:51:27;;;;;;;45.95;3.92;;;20.00;43.60;;;;;;5087529;28;20085;-78